Ana Sayfa
METAR-TAF:

METAR-TAF

Havaalanları :

Mekoryuk, Alaska, Amerika Birleşik Devletleri

Enlem: 60-22N, Boylam: 166-16W, yükseklik: 15 m

Güncel hava durumu gözlemi

Rapor saat 00:56 UTC de 4 saat ve 11 dakika önce yapıldı.
Rüzgar doğu/kuzeydoğudan 5 kt
Sıcaklık -1°C
Nem 86%
Basınç 1021 hPa
Görüş mesafesi: 6.4 km
300 ft yükseklikte çok bulutlu
Pus

METAR: PAMY 010056Z AUTO 07005KT 4SM BR OVC003 M01/M03 A3015 RMK AO2 SNE04 SLP210 P0000 T10111033 FZRANO

Saat: 21:07 (05:07 UTC)


TAF: eksik

4.000'den fazla havaalanı için hava durumu gözlemleri ve tahminleri (METAR ve TAF raporları).

Kullanılabilir istasyonlar harita üzerinde sarı ve kırmızı noktalarla gösterilir.

İstasyonun adını görmek için fareyi noktanın üzerinde gezdirin.

Sonrasında hava gözlem ve tahminlerini görmek için tıklayın.

Haritayı değiştirmek için: yaklaştırmak için siyah artı işaretli yeşil düğmeye ve uzaklaştırmak için de eksi işaretli düğmeye hızla tıklayın; bitişik haritalar için yeşil okları kullanın.


METAR-TAF: